Time;durP1;ratioP1;P1;durP2;ratioP2;P2;SDS_P1;SDS_P2;PMS_P1;PMS_P2;Temp;Humidity;BMP_temperature;BMP_pressure;BME280_temperature;BME280_humidity;BME280_pressure;Samples;Min_cycle;Max_cycle;Signal;HPM_P1;HPM_P2
2023/05/17 00:00:20;;;;;;;12.18;4.53;;;;;;;7.22;100.00;102405.78;5027898;28;20017;-76
2023/05/17 00:02:46;;;;;;;15.90;4.45;;;;;;;7.16;100.00;102403.38;5032396;28;20070;-76
2023/05/17 00:05:11;;;;;;;13.02;4.80;;;;;;;7.15;100.00;102404.28;5030789;28;20049;-76
2023/05/17 00:07:36;;;;;;;17.08;4.63;;;;;;;7.10;100.00;102401.81;5031344;28;20061;-76
2023/05/17 00:10:02;;;;;;;13.82;4.97;;;;;;;7.05;100.00;102403.75;5030915;28;20482;-76
2023/05/17 00:12:27;;;;;;;13.48;4.50;;;;;;;7.05;100.00;102408.13;5031137;28;20025;-76
2023/05/17 00:14:53;;;;;;;13.98;4.72;;;;;;;7.01;100.00;102409.13;5040926;28;20048;-76
2023/05/17 00:17:19;;;;;;;14.85;4.53;;;;;;;6.93;100.00;102412.03;5046722;28;20484;-76
2023/05/17 00:19:44;;;;;;;11.75;4.72;;;;;;;6.98;100.00;102409.25;5032364;28;20021;-76
2023/05/17 00:22:12;;;;;;;14.27;4.70;;;;;;;6.92;100.00;102418.16;5031486;28;20017;-76
2023/05/17 00:24:38;;;;;;;11.10;4.60;;;;;;;6.91;100.00;102412.06;5044511;28;20108;-76
2023/05/17 00:27:12;;;;;;;16.60;4.97;;;;;;;6.88;100.00;102406.09;5030767;28;20557;-76
2023/05/17 00:29:40;;;;;;;13.05;4.70;;;;;;;6.84;100.00;102412.34;5042989;28;20033;-76
2023/05/17 00:32:29;;;;;;;11.57;4.40;;;;;;;6.89;100.00;102413.03;5044020;28;20025;-76
2023/05/17 00:34:58;;;;;;;16.27;5.10;;;;;;;6.83;100.00;102408.00;5030647;28;20035;-75
2023/05/17 00:37:55;;;;;;;17.40;5.40;;;;;;;6.86;100.00;102408.75;5028765;28;20160;-75
2023/05/17 00:40:22;;;;;;;12.32;5.00;;;;;;;6.82;100.00;102407.16;5045367;28;20120;-75
2023/05/17 00:42:50;;;;;;;14.80;4.70;;;;;;;6.83;100.00;102406.25;5027132;28;20026;-75
2023/05/17 00:45:52;;;;;;;13.55;4.93;;;;;;;6.79;100.00;102401.13;5028240;28;20025;-74
2023/05/17 00:48:25;;;;;;;13.40;5.03;;;;;;;6.76;100.00;102398.63;5028552;28;20021;-75
2023/05/17 00:51:00;;;;;;;13.68;5.30;;;;;;;6.79;100.00;102403.75;5008889;28;20556;-75
2023/05/17 00:53:36;;;;;;;12.18;4.53;;;;;;;6.75;100.00;102395.16;5017237;28;20033;-75
2023/05/17 00:56:05;;;;;;;20.02;5.53;;;;;;;6.73;100.00;102396.13;5025842;28;20159;-75
2023/05/17 00:58:39;;;;;;;14.40;5.13;;;;;;;6.68;100.00;102409.34;5043585;28;20032;-76
2023/05/17 01:01:08;;;;;;;18.58;5.85;;;;;;;6.66;100.00;102399.84;5028168;28;20041;-75
2023/05/17 01:03:41;;;;;;;13.75;4.72;;;;;;;6.67;100.00;102402.41;5028195;28;20053;-75
2023/05/17 01:06:13;;;;;;;12.55;4.80;;;;;;;6.65;100.00;102391.13;5026392;28;20120;-75
2023/05/17 01:08:43;;;;;;;12.75;4.70;;;;;;;6.63;100.00;102398.19;5027342;28;20167;-75
2023/05/17 01:11:14;;;;;;;14.20;4.97;;;;;;;6.60;100.00;102403.50;5027895;28;20095;-75
2023/05/17 01:14:18;;;;;;;15.48;4.75;;;;;;;6.63;100.00;102410.41;5043785;28;20029;-75
2023/05/17 01:16:56;;;;;;;11.60;4.60;;;;;;;6.59;100.00;102413.13;5028253;28;20037;-75
2023/05/17 01:19:49;;;;;;;16.17;5.00;;;;;;;6.62;100.00;102409.56;5029086;28;20033;-75
2023/05/17 01:22:49;;;;;;;18.05;5.38;;;;;;;6.58;100.00;102395.72;5045507;28;20028;-75
2023/05/17 01:25:30;;;;;;;23.48;5.18;;;;;;;6.59;100.00;102404.41;5026383;28;20060;-74
2023/05/17 01:28:04;;;;;;;15.75;4.95;;;;;;;6.53;100.00;102399.38;5009122;28;20557;-74
2023/05/17 01:30:35;;;;;;;14.55;4.70;;;;;;;6.51;100.00;102401.19;5001779;28;20499;-75
2023/05/17 01:33:08;;;;;;;12.80;4.90;;;;;;;6.48;100.00;102410.00;5036277;28;20061;-74
2023/05/17 01:35:41;;;;;;;12.93;5.22;;;;;;;6.49;100.00;102411.72;5029517;28;20112;-75
2023/05/17 01:38:13;;;;;;;13.32;5.07;;;;;;;6.47;100.00;102410.91;5028905;28;20036;-75
2023/05/17 01:41:06;;;;;;;12.05;5.22;;;;;;;6.52;100.00;102402.91;5024078;28;20032;-74
2023/05/17 01:43:40;;;;;;;;;;;;;;;6.59;100.00;102404.41;5027958;28;20033;-74
2023/05/17 01:46:18;;;;;;;15.85;5.10;;;;;;;6.45;100.00;102397.03;5043986;28;19975;-74
2023/05/17 01:49:05;;;;;;;19.30;6.07;;;;;;;6.51;100.00;102398.59;5028021;28;20104;-74
2023/05/17 01:51:39;;;;;;;15.93;6.40;;;;;;;6.46;100.00;102395.28;5045269;28;20113;-74
2023/05/17 01:54:11;;;;;;;17.20;6.35;;;;;;;6.43;100.00;102405.81;5041760;28;20068;-74
2023/05/17 02:23:25;;;;;;;;;;;;;;;;;;;;;
2023/05/17 02:30:12;;;;;;;;;;;;;;;;;;;;;
2023/05/17 03:01:58;;;;;;;16.30;7.20;;;;;;;6.49;100.00;102431.78;4707622;29;20466;-73
2023/05/17 03:04:31;;;;;;;21.00;8.32;;;;;;;6.52;100.00;102437.75;4800534;29;20057;-76
2023/05/17 03:07:03;;;;;;;19.85;7.47;;;;;;;6.61;100.00;102434.00;4840826;29;20037;-76
2023/05/17 03:09:34;;;;;;;25.33;8.68;;;;;;;6.60;100.00;102443.59;4960943;28;20033;-76
2023/05/17 03:12:02;;;;;;;19.95;8.40;;;;;;;6.66;100.00;102431.22;4991500;28;20129;-76
2023/05/17 03:14:30;;;;;;;19.60;8.57;;;;;;;6.71;100.00;102438.00;5002108;28;20036;-76
2023/05/17 03:16:55;;;;;;;20.85;8.30;;;;;;;6.75;100.00;102442.25;4993710;28;20042;-76
2023/05/17 03:19:24;;;;;;;21.10;8.98;;;;;;;6.79;100.00;102449.06;4993670;28;20100;-76
2023/05/17 03:21:50;;;;;;;21.58;8.32;;;;;;;6.82;100.00;102440.31;4995080;28;20091;-76
2023/05/17 03:24:16;;;;;;;25.08;9.13;;;;;;;6.87;100.00;102447.09;4993432;28;20496;-76
2023/05/17 03:26:42;;;;;;;17.58;8.00;;;;;;;6.91;100.00;102443.47;5010848;28;20476;-76
2023/05/17 03:29:08;;;;;;;17.88;8.35;;;;;;;6.95;100.00;102448.59;5009552;28;20113;-76
2023/05/17 03:31:35;;;;;;;17.48;8.00;;;;;;;6.96;100.00;102456.41;4994782;28;20075;-76
2023/05/17 03:34:02;;;;;;;17.38;7.65;;;;;;;7.03;100.00;102459.66;4994860;28;20058;-75
2023/05/17 03:36:30;;;;;;;18.80;8.05;;;;;;;7.05;100.00;102447.38;4995140;28;20108;-76
2023/05/17 03:38:58;;;;;;;23.70;9.20;;;;;;;7.07;100.00;102453.41;4993730;28;20030;-76
2023/05/17 03:41:25;;;;;;;26.52;9.23;;;;;;;7.07;100.00;102461.25;4995386;28;20022;-76
2023/05/17 03:43:51;;;;;;;19.50;8.75;;;;;;;7.11;100.00;102457.63;4993911;28;20088;-76
2023/05/17 03:46:19;;;;;;;20.13;9.00;;;;;;;7.16;100.00;102461.81;4988947;28;20112;-76
2023/05/17 03:48:51;;;;;;;24.75;9.32;;;;;;;7.21;100.00;102453.81;4978197;28;20037;-76
2023/05/17 03:51:21;;;;;;;20.60;8.73;;;;;;;7.23;100.00;102454.63;4992634;28;20132;-76
2023/05/17 03:54:02;;;;;;;20.92;8.55;;;;;;;7.27;100.00;102453.59;4990823;28;20032;-76
2023/05/17 03:56:30;;;;;;;21.38;9.80;;;;;;;7.29;100.00;102462.25;4987218;28;20064;-76
2023/05/17 03:58:57;;;;;;;16.17;8.70;;;;;;;7.33;100.00;102461.25;4991944;28;20080;-76
2023/05/17 04:01:23;;;;;;;20.08;9.02;;;;;;;7.32;100.00;102470.00;4991716;28;20029;-76
2023/05/17 04:03:54;;;;;;;20.10;9.60;;;;;;;7.34;100.00;102467.34;5004121;28;20103;-76
2023/05/17 04:06:23;;;;;;;22.33;9.88;;;;;;;7.37;100.00;102470.69;5011006;28;20459;-76
2023/05/17 04:08:53;;;;;;;21.60;9.75;;;;;;;7.38;100.00;102471.56;5038812;28;20065;-76
2023/05/17 04:11:23;;;;;;;16.42;8.60;;;;;;;7.40;100.00;102473.22;5011512;28;20063;-76
2023/05/17 04:13:55;;;;;;;21.27;9.43;;;;;;;7.37;100.00;102478.56;5027357;28;20045;-76
2023/05/17 04:16:23;;;;;;;19.75;9.68;;;;;;;7.41;100.00;102471.44;5029245;28;20048;-76
2023/05/17 04:19:17;;;;;;;16.65;9.05;;;;;;;7.42;100.00;102479.25;5028680;28;20035;-75
2023/05/17 04:21:46;;;;;;;19.30;9.63;;;;;;;7.41;100.00;102485.41;5027462;28;20116;-76
2023/05/17 04:24:16;;;;;;;23.42;10.18;;;;;;;7.44;100.00;102480.06;5027976;28;20036;-76
2023/05/17 04:26:43;;;;;;;22.70;9.93;;;;;;;7.42;100.00;102487.09;5029082;28;20021;-76
2023/05/17 04:29:15;;;;;;;18.58;9.25;;;;;;;7.48;100.00;102483.41;5030112;28;20029;-76
2023/05/17 04:31:48;;;;;;;25.08;9.60;;;;;;;7.48;100.00;102494.75;5045458;28;20048;-75
2023/05/17 04:54:51;;;;;;;;;;;;;;;;;;;;;
2023/05/17 05:02:17;;;;;;;;;;;;;;;;;;;;;
2023/05/17 05:19:05;;;;;;;28.20;12.60;;;;;;;8.15;100.00;102536.91;4947869;29;20121;-74
2023/05/17 05:23:18;;;;;;;;;;;;;;;;;;;;;
2023/05/17 05:25:36;;;;;;;33.90;11.95;;;;;;;8.27;100.00;102545.22;4944009;28;20122;-75
2023/05/17 05:28:02;;;;;;;33.75;12.65;;;;;;;8.41;100.00;102553.50;4926780;29;20043;-74
2023/05/17 05:31:06;;;;;;;24.35;11.00;;;;;;;8.43;100.00;102556.91;4947340;29;20057;-74
2023/05/17 05:33:35;;;;;;;;;;;;;;;8.54;100.00;102554.72;4951563;28;20195;-75
2023/05/17 05:36:03;;;;;;;24.17;11.10;;;;;;;8.63;100.00;102559.63;5017604;28;19913;-75
2023/05/17 05:38:47;;;;;;;28.35;10.05;;;;;;;8.65;100.00;102551.69;5025158;28;20042;-75
2023/05/17 05:44:41;;;;;;;26.15;9.68;;;;;;;8.87;100.00;102570.09;5018109;28;20066;-74
2023/05/17 05:47:10;;;;;;;25.00;9.75;;;;;;;8.96;100.00;102567.09;5025838;28;20045;-75
2023/05/17 05:49:35;;;;;;;28.60;10.00;;;;;;;9.00;100.00;102563.44;5027032;28;20029;-75
2023/05/17 05:52:03;;;;;;;23.88;9.63;;;;;;;9.10;100.00;102570.00;5025918;28;20042;-74
2023/05/17 05:54:28;;;;;;;24.33;9.68;;;;;;;9.22;100.00;102566.91;5025720;28;20429;-75
2023/05/17 05:57:00;;;;;;;24.30;10.45;;;;;;;9.28;100.00;102564.03;5024885;28;20037;-75
2023/05/17 05:59:26;;;;;;;28.08;9.73;;;;;;;9.45;100.00;102578.22;5025948;28;20033;-75
2023/05/17 06:01:54;;;;;;;22.58;9.13;;;;;;;9.52;100.00;102582.31;5024772;28;20029;-74
2023/05/17 06:04:19;;;;;;;24.70;8.60;;;;;;;9.58;100.00;102585.53;5012812;28;20479;-75
2023/05/17 06:06:45;;;;;;;18.45;8.13;;;;;;;9.62;100.00;102589.78;5024167;28;20108;-75
2023/05/17 06:09:13;;;;;;;21.80;8.15;;;;;;;9.65;100.00;102586.16;5020753;28;20079;-75
2023/05/17 06:11:38;;;;;;;21.08;8.50;;;;;;;9.67;100.00;102586.94;5027523;28;20056;-75
2023/05/17 06:14:07;;;;;;;22.67;7.80;;;;;;;9.68;100.00;102591.28;5026303;28;20485;-75
2023/05/17 06:16:36;;;;;;;23.35;8.38;;;;;;;9.74;100.00;102596.28;5025785;28;20552;-75
2023/05/17 06:19:02;;;;;;;24.83;7.80;;;;;;;9.80;100.00;102595.16;5025589;28;20025;-75
2023/05/17 06:21:28;;;;;;;25.92;7.97;;;;;;;9.88;100.00;102600.94;5024061;28;20083;-75
2023/05/17 06:23:53;;;;;;;22.60;7.32;;;;;;;9.93;100.00;102609.47;5024129;28;20033;-75
2023/05/17 06:26:18;;;;;;;18.60;6.55;;;;;;;9.93;100.00;102615.59;5040814;28;20164;-75
2023/05/17 06:28:44;;;;;;;19.90;6.13;;;;;;;9.97;100.00;102611.91;5025136;28;20033;-74
2023/05/17 06:31:16;;;;;;;22.65;6.20;;;;;;;10.01;99.25;102610.03;5026365;28;20405;-74
2023/05/17 06:33:41;;;;;;;19.42;6.03;;;;;;;10.05;98.78;102625.59;5028065;28;20445;-74
2023/05/17 06:36:10;;;;;;;24.88;6.70;;;;;;;10.13;98.40;102616.53;5027427;28;20049;-74
2023/05/17 06:38:35;;;;;;;16.92;5.70;;;;;;;10.16;97.57;102611.97;5029291;28;20041;-74
2023/05/17 06:41:00;;;;;;;23.88;5.90;;;;;;;10.27;96.61;102612.38;5028469;28;20028;-74
2023/05/17 06:43:26;;;;;;;17.23;5.78;;;;;;;10.43;95.62;102615.19;5028238;28;20029;-74
2023/05/17 06:46:11;;;;;;;17.85;5.95;;;;;;;10.59;94.86;102621.47;5032728;28;20094;-74
2023/05/17 06:48:40;;;;;;;20.40;6.05;;;;;;;10.74;93.11;102608.50;5031844;28;20033;-76
2023/05/17 06:51:09;;;;;;;20.17;5.72;;;;;;;10.90;92.31;102617.44;5047279;28;20033;-75
2023/05/17 06:53:34;;;;;;;19.20;4.97;;;;;;;10.99;89.18;102617.00;5032703;28;20390;-75
2023/05/17 06:56:00;;;;;;;19.38;6.20;;;;;;;11.11;85.02;102620.81;5031560;28;20030;-75
2023/05/17 06:58:26;;;;;;;16.77;4.13;;;;;;;11.21;84.20;102615.03;5020454;28;20033;-75
2023/05/17 07:00:52;;;;;;;14.07;4.00;;;;;;;11.37;82.55;102624.84;5033764;28;20455;-75
2023/05/17 07:03:17;;;;;;;17.17;4.68;;;;;;;11.53;77.41;102620.50;5040650;28;20128;-74
2023/05/17 07:05:46;;;;;;;16.38;3.42;;;;;;;11.67;75.00;102627.75;5039504;28;20325;-74
2023/05/17 07:08:11;;;;;;;14.38;3.65;;;;;;;11.76;71.57;102628.13;5024802;28;20552;-75
2023/05/17 07:10:36;;;;;;;19.00;4.25;;;;;;;11.74;71.31;102624.72;5016595;28;20119;-73
2023/05/17 07:13:04;;;;;;;16.10;4.20;;;;;;;11.60;68.25;102632.44;5036744;28;20033;-74
2023/05/17 07:15:31;;;;;;;16.08;3.22;;;;;;;11.65;67.64;102635.75;5036097;28;20535;-75
2023/05/17 07:18:02;;;;;;;13.77;3.50;;;;;;;11.70;68.09;102636.34;5020043;28;20026;-75
2023/05/17 07:20:27;;;;;;;14.95;4.03;;;;;;;11.78;67.75;102636.00;5038441;28;20034;-74
2023/05/17 07:22:55;;;;;;;14.23;3.58;;;;;;;11.86;68.49;102641.72;5039238;28;20082;-74
2023/05/17 07:25:20;;;;;;;19.73;3.63;;;;;;;12.11;66.76;102641.34;5038892;28;20104;-75
2023/05/17 07:27:46;;;;;;;15.32;3.63;;;;;;;12.48;65.85;102643.78;5037731;28;20112;-75
2023/05/17 07:30:13;;;;;;;14.20;3.30;;;;;;;12.71;63.53;102641.66;5038650;28;20116;-75
2023/05/17 07:32:39;;;;;;;13.25;3.25;;;;;;;13.02;61.76;102649.63;5041095;28;20027;-75
2023/05/17 07:35:05;;;;;;;18.98;3.45;;;;;;;13.16;61.50;102649.69;5038364;28;20014;-76
2023/05/17 07:37:31;;;;;;;17.65;4.00;;;;;;;13.38;61.96;102656.47;5039417;28;20017;-75
2023/05/17 07:39:57;;;;;;;14.95;3.10;;;;;;;13.46;61.14;102655.09;5032820;28;20080;-75
2023/05/17 07:42:23;;;;;;;13.63;3.08;;;;;;;13.64;59.66;102653.19;5018882;28;20501;-75
2023/05/17 07:44:51;;;;;;;12.05;3.22;;;;;;;13.68;58.86;102654.72;5028246;28;20021;-75
2023/05/17 07:47:16;;;;;;;15.90;3.53;;;;;;;13.79;60.18;102657.56;5030177;28;20032;-75
2023/05/17 07:49:41;;;;;;;14.07;3.13;;;;;;;14.17;58.90;102657.09;5029089;28;20017;-75
2023/05/17 07:52:07;;;;;;;14.70;3.90;;;;;;;14.67;58.30;102654.03;5011414;28;20111;-75
2023/05/17 07:54:33;;;;;;;12.90;3.22;;;;;;;14.89;55.59;102656.19;5012762;28;20393;-75
2023/05/17 07:57:02;;;;;;;9.52;3.20;;;;;;;15.00;54.22;102653.72;5028121;28;20073;-75
2023/05/17 07:59:32;;;;;;;15.43;3.72;;;;;;;15.55;54.54;102652.78;5029630;28;20029;-75
2023/05/17 08:01:57;;;;;;;14.00;3.03;;;;;;;15.86;53.88;102650.75;5030087;28;20444;-75
2023/05/17 08:04:23;;;;;;;12.38;3.53;;;;;;;16.04;53.38;102652.19;5028178;28;20171;-76
2023/05/17 08:06:51;;;;;;;13.00;3.67;;;;;;;16.11;53.02;102656.13;5030162;28;20041;-75
2023/05/17 08:09:16;;;;;;;17.30;3.78;;;;;;;16.02;54.72;102659.41;5031099;28;20060;-76
2023/05/17 08:11:46;;;;;;;18.30;3.95;;;;;;;15.52;54.30;102663.59;5029845;28;20080;-75
2023/05/17 08:14:14;;;;;;;18.70;3.78;;;;;;;15.28;56.26;102667.88;5029018;28;20398;-76
2023/05/17 08:16:46;;;;;;;17.15;3.85;;;;;;;14.88;56.52;102665.09;5028766;28;20041;-75
2023/05/17 08:19:13;;;;;;;13.98;3.47;;;;;;;14.58;58.53;102661.72;5029375;28;20083;-75
2023/05/17 08:21:39;;;;;;;17.48;4.03;;;;;;;14.29;57.56;102669.59;5029253;28;20064;-75
2023/05/17 08:24:05;;;;;;;13.35;3.63;;;;;;;14.31;58.55;102664.19;5030523;28;20033;-75
2023/05/17 08:26:30;;;;;;;16.77;3.38;;;;;;;14.44;56.02;102664.38;5026560;28;20095;-75
2023/05/17 08:29:01;;;;;;;13.27;3.28;;;;;;;14.30;54.98;102673.94;5029490;28;20025;-75
2023/05/17 08:31:27;;;;;;;14.93;3.28;;;;;;;14.35;56.27;102663.91;5030692;28;20063;-76
2023/05/17 08:33:56;;;;;;;14.93;3.80;;;;;;;14.56;56.35;102660.94;5029653;28;20492;-76
2023/05/17 08:36:22;;;;;;;14.70;3.28;;;;;;;14.89;55.14;102660.66;5011272;28;20072;-75
2023/05/17 08:38:51;;;;;;;15.52;3.42;;;;;;;15.15;54.86;102662.47;5030248;28;20493;-76
2023/05/17 08:41:18;;;;;;;12.38;2.97;;;;;;;15.79;52.70;102660.94;5029085;28;20033;-76
2023/05/17 08:43:43;;;;;;;11.73;2.78;;;;;;;15.73;47.16;102673.78;5030248;28;20032;-76
2023/05/17 08:46:09;;;;;;;10.95;2.47;;;;;;;15.71;48.80;102662.44;5011420;28;20482;-76
2023/05/17 08:48:37;;;;;;;9.93;2.65;;;;;;;16.13;50.09;102656.88;5029161;28;20036;-75
2023/05/17 08:51:02;;;;;;;14.73;3.08;;;;;;;16.74;47.23;102665.91;5029064;28;20026;-75
2023/05/17 08:53:28;;;;;;;11.82;2.60;;;;;;;16.84;44.06;102666.97;5030203;28;20112;-76
2023/05/17 08:56:01;;;;;;;6.20;2.10;;;;;;;16.70;44.19;102667.06;5028684;28;20029;-76
2023/05/17 08:58:31;;;;;;;10.20;2.50;;;;;;;17.09;43.86;102667.84;5028781;28;20033;-75
2023/05/17 09:00:57;;;;;;;10.48;2.47;;;;;;;17.38;44.60;102663.06;5026996;28;20123;-76
2023/05/17 09:03:26;;;;;;;10.45;2.53;;;;;;;17.70;42.24;102674.88;5003882;28;20038;-76
2023/05/17 09:05:55;;;;;;;9.27;2.22;;;;;;;17.70;41.51;102663.38;5007171;28;20037;-75
2023/05/17 09:08:22;;;;;;;8.38;2.22;;;;;;;17.85;40.43;102662.19;5025400;28;20028;-75
2023/05/17 09:10:51;;;;;;;14.25;2.65;;;;;;;17.41;40.45;102663.69;5008895;28;20083;-75
2023/05/17 09:13:16;;;;;;;10.20;2.35;;;;;;;17.46;42.61;102661.53;5009364;28;20072;-75
2023/05/17 09:15:43;;;;;;;9.63;2.20;;;;;;;17.74;41.48;102664.84;5029844;28;20438;-75
2023/05/17 09:18:12;;;;;;;9.20;2.65;;;;;;;18.04;41.74;102653.66;5022334;28;20136;-75
2023/05/17 09:20:38;;;;;;;8.55;2.40;;;;;;;17.96;39.23;102656.91;5017347;28;20043;-75
2023/05/17 09:23:09;;;;;;;11.68;2.55;;;;;;;17.78;40.49;102663.63;5028480;28;20021;-75
2023/05/17 09:25:36;;;;;;;7.63;2.40;;;;;;;17.73;39.71;102665.78;5026480;28;20033;-75
2023/05/17 09:28:10;;;;;;;8.43;2.47;;;;;;;18.02;40.41;102645.81;5028705;28;20022;-76
2023/05/17 09:30:38;;;;;;;7.65;2.20;;;;;;;18.38;40.75;102655.38;5029680;28;20025;-75
2023/05/17 09:33:05;;;;;;;11.57;2.72;;;;;;;18.32;40.39;102660.34;5010933;28;20163;-75
2023/05/17 09:35:32;;;;;;;7.55;2.20;;;;;;;17.89;38.89;102674.31;5011420;28;20456;-75
2023/05/17 09:38:13;;;;;;;8.73;2.15;;;;;;;17.72;41.66;102672.09;5000952;28;20462;-75
2023/05/17 09:40:43;;;;;;;10.10;2.67;;;;;;;17.87;40.34;102670.06;5020036;28;20045;-76
2023/05/17 09:43:11;;;;;;;9.27;2.40;;;;;;;17.96;40.86;102664.88;5024919;28;20101;-75
2023/05/17 09:45:37;;;;;;;10.13;2.33;;;;;;;18.42;40.50;102656.88;5030952;28;20444;-75
2023/05/17 09:48:17;;;;;;;9.02;2.20;;;;;;;18.97;40.37;102651.66;5004917;28;20029;-75
2023/05/17 09:50:47;;;;;;;9.05;2.28;;;;;;;19.35;39.08;102656.53;5025367;28;20028;-76
2023/05/17 09:53:24;;;;;;;10.93;2.92;;;;;;;19.83;38.36;102651.63;5009683;28;20065;-76
2023/05/17 09:55:51;;;;;;;11.07;2.28;;;;;;;20.77;37.00;102644.41;5028593;28;20159;-75
2023/05/17 09:58:18;;;;;;;9.55;2.13;;;;;;;21.51;34.70;102648.38;5026408;28;20025;-76
2023/05/17 10:00:45;;;;;;;11.32;2.28;;;;;;;21.61;32.81;102648.34;5026396;28;20045;-75
2023/05/17 10:03:12;;;;;;;7.70;2.30;;;;;;;21.36;32.75;102649.78;5027752;28;20046;-75
2023/05/17 10:05:42;;;;;;;8.75;1.90;;;;;;;21.77;34.05;102648.66;5009791;28;20029;-75
2023/05/17 10:08:12;;;;;;;6.75;2.03;;;;;;;21.75;33.31;102650.63;5025657;28;20950;-75
2023/05/17 10:10:39;;;;;;;10.13;2.40;;;;;;;20.74;35.09;102652.69;5029138;28;20037;-75
2023/05/17 10:13:08;;;;;;;10.32;2.38;;;;;;;19.81;37.26;102655.41;5027040;28;20025;-75
2023/05/17 10:15:39;;;;;;;10.93;2.55;;;;;;;19.65;37.81;102654.03;5011239;28;20029;-75
2023/05/17 10:18:08;;;;;;;10.48;2.40;;;;;;;19.52;38.37;102653.31;5027749;28;20029;-75
2023/05/17 10:20:34;;;;;;;8.70;2.40;;;;;;;18.69;38.69;102653.88;5030904;28;20021;-75
2023/05/17 10:23:05;;;;;;;6.72;2.17;;;;;;;18.17;40.16;102663.25;5032508;28;20032;-75
2023/05/17 10:25:31;;;;;;;7.93;2.35;;;;;;;17.94;41.25;102655.31;5033082;28;20029;-75
2023/05/17 10:27:58;;;;;;;8.40;2.10;;;;;;;17.88;40.55;102661.13;5030554;28;20537;-75
2023/05/17 10:30:25;;;;;;;9.13;2.58;;;;;;;17.90;40.71;102664.50;5015139;28;20029;-75
2023/05/17 10:32:52;;;;;;;8.50;2.28;;;;;;;17.74;42.46;102665.69;5032503;28;20490;-75
2023/05/17 10:35:19;;;;;;;10.07;2.58;;;;;;;17.32;41.36;102663.53;5011415;28;20033;-76
2023/05/17 10:37:44;;;;;;;9.93;2.63;;;;;;;17.26;41.64;102658.66;5028772;28;20033;-74
2023/05/17 10:40:13;;;;;;;10.57;2.65;;;;;;;17.72;42.39;102648.97;5030817;28;20116;-75
2023/05/17 10:42:50;;;;;;;8.18;1.98;;;;;;;17.77;40.26;102648.63;5029657;28;20048;-76
2023/05/17 10:45:19;;;;;;;8.75;2.40;;;;;;;17.68;39.42;102652.84;5012842;28;20091;-75
2023/05/17 10:47:45;;;;;;;8.65;2.00;;;;;;;17.64;40.81;102650.50;5029974;28;20554;-75
2023/05/17 10:50:13;;;;;;;9.55;2.08;;;;;;;18.13;40.17;102639.63;5011198;28;20113;-75
2023/05/17 10:52:46;;;;;;;7.40;2.50;;;;;;;18.31;39.63;102653.34;5025942;28;20549;-75
2023/05/17 10:55:13;;;;;;;7.55;1.92;;;;;;;18.60;37.82;102633.25;5008312;28;20470;-76
2023/05/17 10:57:38;;;;;;;12.45;2.00;;;;;;;18.83;38.75;102627.94;5000734;28;20508;-76
2023/05/17 11:00:06;;;;;;;9.60;2.20;;;;;;;18.50;39.20;102629.63;5024080;28;20053;-75
2023/05/17 11:02:32;;;;;;;9.88;2.17;;;;;;;18.49;39.17;102630.59;5008003;28;20046;-75
2023/05/17 11:04:59;;;;;;;7.43;2.00;;;;;;;18.48;38.24;102634.22;5012360;28;20026;-75
2023/05/17 11:07:28;;;;;;;6.38;1.77;;;;;;;18.56;37.33;102626.47;5010546;28;20033;-75
2023/05/17 11:10:10;;;;;;;10.13;2.05;;;;;;;18.73;39.00;102628.66;5011747;28;20433;-75
2023/05/17 11:12:38;;;;;;;4.95;1.48;;;;;;;18.85;36.52;102632.16;4994936;28;20049;-73
2023/05/17 11:15:09;;;;;;;6.10;1.60;;;;;;;18.74;37.23;102627.66;5011510;28;20029;-77
2023/05/17 11:17:56;;;;;;;7.35;1.77;;;;;;;18.92;38.44;102627.19;5012435;28;20513;-74
2023/05/17 11:20:24;;;;;;;6.95;1.98;;;;;;;19.14;35.85;102631.59;5019727;28;20495;-74
2023/05/17 11:22:57;;;;;;;8.13;2.10;;;;;;;18.81;35.73;102632.50;5013526;28;20083;-74
2023/05/17 11:25:26;;;;;;;5.47;1.80;;;;;;;18.78;36.71;102637.13;5008187;28;20092;-74
2023/05/17 11:27:52;;;;;;;6.93;1.80;;;;;;;19.01;37.20;102629.94;5032104;28;20029;-74
2023/05/17 11:30:25;;;;;;;7.95;2.15;;;;;;;19.05;35.97;102622.53;5030363;28;20045;-75
2023/05/17 11:33:05;;;;;;;6.32;1.98;;;;;;;19.04;36.92;102626.19;5032048;28;20026;-74
2023/05/17 11:35:35;;;;;;;6.97;1.85;;;;;;;18.84;37.38;102624.28;5013034;28;20026;-75
2023/05/17 11:38:13;;;;;;;6.43;1.90;;;;;;;18.89;36.95;102622.94;5023141;28;20040;-75
2023/05/17 11:40:40;;;;;;;7.53;1.92;;;;;;;18.65;35.52;102625.75;5029566;28;20033;-75
2023/05/17 11:43:17;;;;;;;7.30;2.35;;;;;;;18.72;36.11;102616.28;5031519;28;20025;-76
2023/05/17 11:45:46;;;;;;;10.38;2.28;;;;;;;19.18;37.54;102623.22;5028270;28;20033;-76
2023/05/17 11:48:12;;;;;;;8.10;2.03;;;;;;;19.06;36.63;102626.91;5029189;28;20025;-74
2023/05/17 11:50:38;;;;;;;6.93;1.70;;;;;;;19.18;36.32;102617.88;5028757;28;20029;-75
2023/05/17 11:53:08;;;;;;;9.52;2.03;;;;;;;19.02;37.42;102622.78;5029460;28;20029;-75
2023/05/17 11:55:37;;;;;;;7.72;2.15;;;;;;;19.20;36.42;102615.06;5018478;28;20033;-75
2023/05/17 11:58:04;;;;;;;6.80;1.77;;;;;;;19.37;36.09;102623.41;5026753;28;20108;-75
2023/05/17 12:00:30;;;;;;;6.88;1.83;;;;;;;19.56;36.26;102614.72;5016884;28;20040;-75
2023/05/17 12:02:55;;;;;;;6.38;1.75;;;;;;;19.69;35.46;102618.06;5018366;28;20128;-75
2023/05/17 12:05:21;;;;;;;6.78;1.80;;;;;;;19.38;35.15;102619.75;5024488;28;20112;-74
2023/05/17 12:07:48;;;;;;;7.35;1.83;;;;;;;19.54;34.87;102608.66;5011865;28;20059;-75
2023/05/17 12:10:14;;;;;;;7.10;2.03;;;;;;;19.57;35.90;102612.91;5027248;28;20017;-74
2023/05/17 12:12:40;;;;;;;8.35;1.95;;;;;;;19.60;35.47;102613.50;5023714;28;20088;-74
2023/05/17 12:15:16;;;;;;;5.80;1.98;;;;;;;19.34;35.20;102606.81;5002817;28;20116;-77
2023/05/17 12:17:44;;;;;;;6.32;1.88;;;;;;;19.26;36.32;102615.44;5028303;28;20087;-74
2023/05/17 12:20:09;;;;;;;7.13;1.88;;;;;;;19.44;35.02;102609.53;5027554;28;20084;-74
2023/05/17 12:22:53;;;;;;;7.00;1.85;;;;;;;19.45;36.38;102614.75;5019810;28;20033;-74
2023/05/17 12:25:28;;;;;;;6.55;2.00;;;;;;;18.92;36.66;102616.50;5005786;28;20880;-74
2023/05/17 12:28:11;;;;;;;7.00;1.85;;;;;;;18.59;37.93;102610.22;5003106;28;20103;-75
2023/05/17 12:30:38;;;;;;;9.95;2.35;;;;;;;18.73;37.04;102593.97;5020565;28;20382;-74
2023/05/17 12:33:04;;;;;;;7.18;2.03;;;;;;;19.17;36.74;102607.31;5028663;28;20367;-74
2023/05/17 12:35:30;;;;;;;6.65;2.00;;;;;;;19.47;35.50;102611.97;5027702;28;20037;-74
2023/05/17 12:37:56;;;;;;;8.27;2.15;;;;;;;19.26;36.11;102604.78;5027990;28;20033;-74
2023/05/17 12:40:22;;;;;;;6.53;1.85;;;;;;;19.29;37.71;102619.69;5010491;28;20428;-75
2023/05/17 12:42:47;;;;;;;9.45;2.10;;;;;;;18.98;36.97;102613.34;5010695;28;20052;-74
2023/05/17 12:45:12;;;;;;;6.68;1.77;;;;;;;19.16;36.95;102617.16;5021129;28;20106;-74
2023/05/17 12:47:40;;;;;;;10.13;2.08;;;;;;;18.94;35.70;102615.41;5013501;28;20029;-74
2023/05/17 12:50:05;;;;;;;8.88;2.00;;;;;;;19.06;37.19;102608.22;5010710;28;20553;-74
2023/05/17 12:52:36;;;;;;;6.35;1.50;;;;;;;18.95;36.62;102616.25;5020648;28;20072;-74
2023/05/17 12:55:03;;;;;;;6.03;1.90;;;;;;;18.86;36.59;102606.34;5028938;28;20445;-74
2023/05/17 12:57:30;;;;;;;9.73;2.13;;;;;;;19.00;36.47;102611.38;5027996;28;20053;-75
2023/05/17 12:59:55;;;;;;;7.55;2.00;;;;;;;19.20;37.54;102605.25;5027761;28;20041;-74
2023/05/17 13:02:22;;;;;;;7.25;2.08;;;;;;;19.04;36.29;102615.50;5007969;28;20372;-75
2023/05/17 13:04:51;;;;;;;8.20;1.80;;;;;;;19.03;36.00;102603.97;4999237;28;20025;-74
2023/05/17 13:07:22;;;;;;;10.98;1.95;;;;;;;18.56;36.75;102605.13;5012156;28;20048;-74
2023/05/17 13:09:47;;;;;;;11.82;2.35;;;;;;;18.23;37.44;102607.78;5012671;28;20041;-74
2023/05/17 13:12:20;;;;;;;7.57;1.90;;;;;;;18.46;36.77;102609.50;5012654;28;20041;-74
2023/05/17 13:14:47;;;;;;;9.50;2.00;;;;;;;18.57;36.00;102598.81;4992215;28;20483;-75
2023/05/17 13:17:21;;;;;;;9.35;1.75;;;;;;;18.51;35.76;102601.97;5010036;28;20063;-76
2023/05/17 13:19:46;;;;;;;23.60;3.03;;;;;;;18.31;36.54;102594.69;5029099;28;20057;-75
2023/05/17 13:22:14;;;;;;;12.93;2.20;;;;;;;18.10;36.09;102603.44;5028769;28;20056;-75